createdAt,value
2018-04-08T00:00:03.146Z,14.80
2018-04-08T00:02:29.101Z,13.17
2018-04-08T00:04:55.093Z,10.80
2018-04-08T00:07:21.105Z,12.37
2018-04-08T00:09:47.099Z,12.40
2018-04-08T00:12:13.061Z,10.90
2018-04-08T00:14:39.813Z,15.20
2018-04-08T00:17:06.514Z,10.83
2018-04-08T00:19:32.506Z,11.53
2018-04-08T00:21:59.193Z,11.00
2018-04-08T00:24:25.257Z,13.17
2018-04-08T00:26:51.209Z,13.37
2018-04-08T00:29:17.201Z,15.10
2018-04-08T00:31:43.162Z,14.57
2018-04-08T00:34:09.127Z,13.10
2018-04-08T00:36:35.111Z,18.70
2018-04-08T00:39:01.066Z,18.30
2018-04-08T00:41:27.102Z,15.97
2018-04-08T00:43:53.078Z,11.43
2018-04-08T00:46:19.825Z,13.37
2018-04-08T00:48:45.783Z,12.97
2018-04-08T00:51:11.781Z,16.00
2018-04-08T00:53:37.774Z,11.17
2018-04-08T00:56:03.742Z,13.10
2018-04-08T00:58:29.733Z,11.63
2018-04-08T01:00:55.693Z,13.80
2018-04-08T01:03:21.690Z,12.90
2018-04-08T01:05:48.385Z,19.80
2018-04-08T01:08:14.338Z,15.00
2018-04-08T01:10:40.344Z,11.07
2018-04-08T01:13:06.384Z,14.77
2018-04-08T01:15:32.318Z,13.87
2018-04-08T01:17:58.313Z,15.50
2018-04-08T01:20:25.052Z,14.90
2018-04-08T01:22:51.054Z,13.23
2018-04-08T01:25:17.031Z,13.13
2018-04-08T01:27:42.999Z,12.67
2018-04-08T01:30:08.989Z,13.67
2018-04-08T01:32:34.937Z,16.07
2018-04-08T01:35:00.908Z,14.57
2018-04-08T01:37:26.890Z,12.17
2018-04-08T01:39:53.707Z,15.30
2018-04-08T01:42:19.688Z,13.20
2018-04-08T01:44:45.685Z,13.23
2018-04-08T01:47:11.633Z,16.77
2018-04-08T01:49:37.615Z,13.33
2018-04-08T01:52:04.337Z,14.27
2018-04-08T01:54:30.284Z,14.83
2018-04-08T01:56:56.280Z,12.60
2018-04-08T01:59:22.266Z,16.13
2018-04-08T02:01:49.013Z,12.27
2018-04-08T02:04:14.973Z,12.73
2018-04-08T02:06:41.718Z,16.10
2018-04-08T02:09:08.441Z,15.83
2018-04-08T02:11:34.389Z,15.23
2018-04-08T02:14:00.382Z,14.97
2018-04-08T02:16:26.358Z,17.03
2018-04-08T02:18:53.106Z,14.80
2018-04-08T02:21:19.097Z,14.00
2018-04-08T02:23:45.040Z,13.40
2018-04-08T02:26:11.061Z,13.90
2018-04-08T02:28:37.019Z,14.23
2018-04-08T02:31:03.009Z,14.43
2018-04-08T02:33:29.786Z,14.20
2018-04-08T02:35:55.758Z,17.20
2018-04-08T02:38:21.717Z,14.90
2018-04-08T02:40:47.721Z,16.43
2018-04-08T02:43:13.714Z,15.17
2018-04-08T02:45:40.438Z,15.13
2018-04-08T02:48:06.430Z,16.33
2018-04-08T02:50:32.378Z,16.67
2018-04-08T02:52:58.374Z,15.57
2018-04-08T02:55:25.128Z,14.87
2018-04-08T02:57:51.826Z,14.77
2018-04-08T03:00:17.797Z,16.47
2018-04-08T03:02:44.534Z,15.87
2018-04-08T03:05:10.530Z,14.50
2018-04-08T03:07:36.483Z,13.90
2018-04-08T03:10:02.478Z,15.70
2018-04-08T03:12:29.417Z,18.33
2018-04-08T03:14:55.437Z,18.30
2018-04-08T03:17:21.386Z,13.77
2018-04-08T03:19:47.377Z,14.90
2018-04-08T03:22:13.330Z,17.30
2018-04-08T03:24:39.327Z,20.07
2018-04-08T03:27:05.277Z,17.57
2018-04-08T03:29:31.231Z,16.10
2018-04-08T03:31:57.225Z,17.50
2018-04-08T03:34:23.941Z,15.23
2018-04-08T03:36:50.628Z,17.20
2018-04-08T03:39:17.324Z,13.57
2018-04-08T03:41:43.321Z,14.73
2018-04-08T03:44:10.221Z,14.90
2018-04-08T03:46:36.177Z,16.20
2018-04-08T03:49:02.157Z,14.87
2018-04-08T03:51:28.889Z,14.47
2018-04-08T03:53:54.860Z,13.73
2018-04-08T03:56:20.869Z,14.90
2018-04-08T03:58:47.598Z,17.70
2018-04-08T04:01:13.560Z,14.20
2018-04-08T04:03:40.314Z,16.67
2018-04-08T04:06:07.010Z,18.53
2018-04-08T04:08:32.996Z,15.47
2018-04-08T04:10:58.981Z,15.93
2018-04-08T04:13:24.954Z,16.40
2018-04-08T04:15:50.986Z,16.10
2018-04-08T04:18:29.577Z,23.33
2018-04-08T04:21:08.034Z,17.67
2018-04-08T04:23:46.638Z,14.93
2018-04-08T04:26:25.026Z,17.20
2018-04-08T04:28:51.759Z,15.03
2018-04-08T04:31:17.758Z,16.20
2018-04-08T04:33:43.758Z,16.27
2018-04-08T04:36:10.532Z,18.93
2018-04-08T04:38:36.472Z,16.10
2018-04-08T04:41:02.449Z,15.67
2018-04-08T04:43:28.437Z,21.03
2018-04-08T04:45:54.414Z,16.47
2018-04-08T04:48:20.405Z,15.40
2018-04-08T04:50:46.380Z,16.50
2018-04-08T04:53:12.336Z,14.77
2018-04-08T04:55:38.376Z,20.60
2018-04-08T04:58:04.309Z,14.60
2018-04-08T05:00:30.300Z,18.17
2018-04-08T05:02:56.307Z,16.27
2018-04-08T05:05:23.025Z,17.17
2018-04-08T05:07:48.966Z,16.40
2018-04-08T05:10:14.953Z,16.47
2018-04-08T05:12:40.921Z,16.73
2018-04-08T05:15:06.905Z,17.57
2018-04-08T05:17:33.601Z,20.77
2018-04-08T05:19:59.588Z,16.80
2018-04-08T05:22:25.538Z,16.03
2018-04-08T05:24:52.228Z,19.57
2018-04-08T05:27:18.225Z,15.43
2018-04-08T05:29:44.926Z,16.10
2018-04-08T05:32:10.980Z,17.30
2018-04-08T05:34:36.937Z,17.40
2018-04-08T05:37:02.932Z,16.80
2018-04-08T05:39:28.892Z,19.07
2018-04-08T05:41:54.873Z,16.87
2018-04-08T05:44:21.032Z,19.53
2018-04-08T05:46:47.005Z,16.47
2018-04-08T05:49:13.026Z,19.67
2018-04-08T05:51:39.799Z,17.77
2018-04-08T05:54:05.754Z,17.23
2018-04-08T05:56:32.482Z,17.80
2018-04-08T05:58:58.465Z,17.03
2018-04-08T06:01:24.482Z,20.00
2018-04-08T06:03:51.181Z,15.90
2018-04-08T06:06:17.141Z,16.67
2018-04-08T06:08:43.142Z,15.87
2018-04-08T06:11:09.125Z,21.40
2018-04-08T06:13:35.089Z,16.50
2018-04-08T06:16:01.069Z,19.20
2018-04-08T06:18:27.044Z,14.60
2018-04-08T06:20:53.061Z,17.13
2018-04-08T06:23:19.021Z,17.93
2018-04-08T06:25:45.757Z,17.73
2018-04-08T06:28:12.481Z,17.40
2018-04-08T06:30:38.469Z,16.67
2018-04-08T06:33:05.198Z,16.63
2018-04-08T06:35:31.202Z,19.17
2018-04-08T06:37:57.255Z,17.30
2018-04-08T06:40:23.253Z,17.90
2018-04-08T06:42:49.217Z,16.00
2018-04-08T06:45:15.217Z,16.00
2018-04-08T06:47:41.208Z,15.57
2018-04-08T06:50:08.021Z,16.20
2018-04-08T06:52:34.018Z,16.90
2018-04-08T06:55:00.717Z,14.87
2018-04-08T06:57:26.700Z,15.30
2018-04-08T06:59:52.706Z,16.33
2018-04-08T07:02:18.722Z,18.30
2018-04-08T07:04:44.705Z,16.33
2018-04-08T07:07:10.690Z,19.30
2018-04-08T07:09:36.680Z,15.57
2018-04-08T07:12:02.673Z,17.40
2018-04-08T07:14:28.737Z,17.83
2018-04-08T07:16:54.758Z,16.03
2018-04-08T07:19:20.753Z,15.90
2018-04-08T07:21:46.789Z,16.63
2018-04-08T07:24:13.482Z,17.97
2018-04-08T07:26:39.450Z,15.17
2018-04-08T07:29:05.439Z,16.80
2018-04-08T07:31:31.422Z,14.97
2018-04-08T07:33:57.438Z,15.50
2018-04-08T07:36:23.422Z,18.60
2018-04-08T07:38:49.430Z,16.57
2018-04-08T07:41:15.394Z,14.97
2018-04-08T07:43:42.129Z,16.20
2018-04-08T07:46:08.121Z,16.73
2018-04-08T07:48:34.122Z,17.97
2018-04-08T07:51:00.082Z,18.53
2018-04-08T07:53:26.146Z,16.53
2018-04-08T07:55:52.149Z,16.50
2018-04-08T07:58:18.138Z,15.13
2018-04-08T08:00:44.870Z,16.10
2018-04-08T08:03:10.904Z,15.53
2018-04-08T08:05:36.907Z,18.90
2018-04-08T08:08:02.869Z,15.87
2018-04-08T08:10:28.858Z,15.90
2018-04-08T08:12:55.624Z,15.93
2018-04-08T08:15:21.585Z,15.87
2018-04-08T08:17:47.617Z,15.23
2018-04-08T08:20:13.569Z,15.87
2018-04-08T08:22:39.561Z,17.47
2018-04-08T08:25:06.305Z,16.27
2018-04-08T08:27:33.049Z,17.47
2018-04-08T08:29:59.009Z,17.13
2018-04-08T08:32:25.053Z,16.00
2018-04-08T08:34:51.068Z,15.87
2018-04-08T08:37:17.788Z,16.40
2018-04-08T08:39:43.755Z,16.50
2018-04-08T08:42:10.509Z,17.67
2018-04-08T08:44:37.213Z,17.80
2018-04-08T08:47:03.213Z,16.53
2018-04-08T08:49:29.924Z,16.67
2018-04-08T08:51:55.934Z,16.80
2018-04-08T08:54:21.954Z,17.67
2018-04-08T08:56:47.925Z,17.93
2018-04-08T08:59:13.930Z,19.20
2018-04-08T09:01:39.878Z,17.80
2018-04-08T09:04:05.860Z,18.57
2018-04-08T09:06:31.817Z,17.87
2018-04-08T09:08:57.862Z,17.97
2018-04-08T09:11:23.884Z,17.17
2018-04-08T09:13:50.582Z,19.40
2018-04-08T09:16:16.572Z,18.10
2018-04-08T09:18:43.350Z,18.73
2018-04-08T09:21:09.332Z,17.63
2018-04-08T09:23:41.530Z,17.20
2018-04-08T09:26:07.493Z,17.23
2018-04-08T09:28:33.505Z,17.57
2018-04-08T09:30:59.490Z,17.83
2018-04-08T09:33:25.541Z,17.87
2018-04-08T09:35:51.541Z,18.13
2018-04-08T09:38:17.547Z,18.00
2018-04-08T09:40:43.577Z,17.47
2018-04-08T09:43:09.595Z,16.10
2018-04-08T09:45:35.581Z,17.20
2018-04-08T09:48:02.318Z,18.27
2018-04-08T09:50:28.359Z,18.73
2018-04-08T09:52:55.125Z,18.57
2018-04-08T09:55:21.148Z,18.73
2018-04-08T09:57:48.765Z,19.57
2018-04-08T10:00:21.141Z,17.10
2018-04-08T10:02:53.443Z,16.27
2018-04-08T10:05:19.471Z,16.63
2018-04-08T10:07:45.484Z,17.20
2018-04-08T10:10:12.218Z,19.67
2018-04-08T10:12:38.225Z,19.23
2018-04-08T10:15:04.180Z,17.47
2018-04-08T10:17:30.208Z,18.30
2018-04-08T10:19:56.254Z,18.53
2018-04-08T10:22:22.253Z,17.80
2018-04-08T10:24:48.312Z,20.90
2018-04-08T10:27:14.287Z,18.33
2018-04-08T10:29:41.059Z,16.57
2018-04-08T10:32:07.086Z,17.90
2018-04-08T10:34:33.821Z,18.43
2018-04-08T10:36:59.798Z,18.67
2018-04-08T10:39:25.850Z,17.77
2018-04-08T10:41:51.878Z,18.13
2018-04-08T10:44:17.888Z,18.10
2018-04-08T10:46:43.913Z,20.67
2018-04-08T10:49:10.633Z,19.80
2018-04-08T10:51:36.677Z,21.07
2018-04-08T10:54:02.603Z,18.27
2018-04-08T10:56:28.574Z,18.93
2018-04-08T10:58:55.355Z,20.03
2018-04-08T11:01:21.377Z,18.80
2018-04-08T11:03:48.065Z,21.63
2018-04-08T11:06:14.024Z,20.83
2018-04-08T11:08:40.019Z,22.30
2018-04-08T11:11:06.034Z,20.47
2018-04-08T11:13:32.739Z,20.30
2018-04-08T11:15:58.749Z,20.67
2018-04-08T11:18:24.729Z,20.40
2018-04-08T11:20:50.693Z,19.10
2018-04-08T11:23:17.420Z,20.57
2018-04-08T11:25:43.382Z,19.40
2018-04-08T11:28:10.110Z,20.73
2018-04-08T11:30:36.093Z,19.83
2018-04-08T11:33:02.073Z,20.20
2018-04-08T11:35:28.050Z,20.47
2018-04-08T11:37:54.820Z,19.73
2018-04-08T11:40:20.765Z,19.90
2018-04-08T11:42:46.744Z,20.97
2018-04-08T11:45:12.759Z,20.40
2018-04-08T11:47:38.738Z,20.13
2018-04-08T11:50:05.477Z,18.80
2018-04-08T11:52:31.488Z,18.47
2018-04-08T11:54:57.491Z,19.93
2018-04-08T11:57:23.520Z,22.03
2018-04-08T11:59:50.534Z,21.00
2018-04-08T12:02:16.653Z,22.17
2018-04-08T12:04:42.665Z,17.90
2018-04-08T12:07:08.658Z,19.70
2018-04-08T12:09:34.649Z,21.40
2018-04-08T12:12:00.619Z,19.63
2018-04-08T12:14:26.633Z,21.10
2018-04-08T12:16:52.663Z,20.60
2018-04-08T12:19:18.653Z,20.50
2018-04-08T12:21:45.422Z,21.37
2018-04-08T12:24:11.431Z,21.70
2018-04-08T12:26:37.406Z,22.50
2018-04-08T12:29:03.421Z,22.33
2018-04-08T12:31:30.181Z,22.40
2018-04-08T12:33:56.174Z,21.23
2018-04-08T12:36:22.178Z,23.20
2018-04-08T12:38:48.157Z,21.80
2018-04-08T12:41:14.117Z,21.20
2018-04-08T12:43:40.857Z,22.00
2018-04-08T12:46:06.889Z,20.63
2018-04-08T12:48:32.857Z,21.80
2018-04-08T12:50:59.594Z,20.50
2018-04-08T12:53:26.389Z,20.93
2018-04-08T12:55:52.378Z,21.53
2018-04-08T12:58:19.145Z,23.10
2018-04-08T13:00:45.854Z,20.90
2018-04-08T13:03:11.870Z,21.70
2018-04-08T13:08:03.837Z,21.33
2018-04-08T13:10:29.876Z,24.20
2018-04-08T13:12:55.865Z,21.73
2018-04-08T13:15:21.885Z,23.50
2018-04-08T13:17:47.869Z,20.60
2018-04-08T13:20:13.970Z,24.13
2018-04-08T13:22:39.949Z,22.50
2018-04-08T13:25:05.924Z,23.07
2018-04-08T13:27:31.924Z,21.47
2018-04-08T13:29:57.898Z,22.97
2018-04-08T13:32:23.953Z,24.00
2018-04-08T13:34:49.934Z,25.37
2018-04-08T13:37:15.963Z,22.33
2018-04-08T13:39:41.936Z,21.70
2018-04-08T13:42:07.941Z,21.90
2018-04-08T13:44:34.033Z,23.00
2018-04-08T13:47:00.761Z,22.50
2018-04-08T13:49:26.787Z,23.03
2018-04-08T13:51:52.791Z,24.03
2018-04-08T13:54:19.489Z,23.17
2018-04-08T13:56:45.553Z,24.47
2018-04-08T13:59:11.522Z,22.80
2018-04-08T14:01:37.498Z,23.93
2018-04-08T14:04:03.490Z,24.40
2018-04-08T14:06:30.203Z,26.30
2018-04-08T14:08:56.221Z,24.50
2018-04-08T14:11:22.186Z,25.35
2018-04-08T14:13:48.198Z,24.50
2018-04-08T14:16:14.205Z,25.60
2018-04-08T14:18:40.172Z,23.03
2018-04-08T14:21:06.169Z,25.13
2018-04-08T14:23:32.188Z,24.30
2018-04-08T14:25:58.885Z,25.10
2018-04-08T14:28:24.986Z,25.97
2018-04-08T14:30:51.703Z,26.10
2018-04-08T14:33:17.697Z,25.97
2018-04-08T14:35:43.668Z,25.53
2018-04-08T14:38:09.670Z,25.10
2018-04-08T14:40:35.662Z,25.37
2018-04-08T14:43:01.631Z,25.80
2018-04-08T14:45:27.686Z,26.47
2018-04-08T14:47:53.691Z,25.07
2018-04-08T14:50:20.431Z,26.00
2018-04-08T14:52:46.417Z,25.23
2018-04-08T14:55:12.396Z,28.13
2018-04-08T14:57:38.389Z,30.17
2018-04-08T15:00:04.381Z,29.70
2018-04-08T15:02:30.345Z,27.70
2018-04-08T15:04:56.368Z,25.20
2018-04-08T15:07:23.105Z,26.57
2018-04-08T15:09:49.080Z,27.73
2018-04-08T15:12:15.064Z,28.10
2018-04-08T15:14:41.044Z,29.03
2018-04-08T15:17:07.041Z,27.13
2018-04-08T15:19:33.033Z,27.77
2018-04-08T15:21:59.034Z,29.10
2018-04-08T15:24:25.902Z,28.23
2018-04-08T15:26:51.893Z,27.27
2018-04-08T15:29:17.917Z,28.17
2018-04-08T15:31:43.872Z,29.50
2018-04-08T15:34:09.851Z,31.60
2018-04-08T15:36:35.854Z,30.87
2018-04-08T15:39:01.856Z,31.00
2018-04-08T15:41:27.837Z,31.00
2018-04-08T15:43:53.824Z,30.27
2018-04-08T15:46:19.823Z,32.23
2018-04-08T15:48:46.549Z,31.17
2018-04-08T15:51:12.556Z,28.83
2018-04-08T15:53:38.530Z,55.73
2018-04-08T15:56:04.709Z,30.90
2018-04-08T15:58:30.673Z,30.63
2018-04-08T16:00:56.729Z,30.47
2018-04-08T16:03:22.750Z,40.03
2018-04-08T16:05:48.706Z,31.00
2018-04-08T16:08:14.662Z,33.33
2018-04-08T16:10:41.402Z,31.03
2018-04-08T16:13:08.142Z,31.33
2018-04-08T16:15:34.143Z,36.73
2018-04-08T16:18:00.093Z,39.10
2018-04-08T16:20:26.069Z,35.67
2018-04-08T16:22:52.828Z,34.00
2018-04-08T16:25:19.544Z,35.43
2018-04-08T16:27:45.607Z,42.83
2018-04-08T16:30:11.613Z,43.73
2018-04-08T16:32:37.597Z,36.93
2018-04-08T16:35:04.322Z,43.07
2018-04-08T16:37:31.074Z,53.30
2018-04-08T16:39:57.120Z,36.30
2018-04-08T16:42:24.576Z,42.80
2018-04-08T16:44:50.553Z,41.23
2018-04-08T16:47:17.297Z,34.30
2018-04-08T16:49:44.003Z,33.50
2018-04-08T16:52:09.965Z,33.63
2018-04-08T16:54:35.947Z,36.37
2018-04-08T16:57:02.435Z,36.40
2018-04-08T16:59:28.481Z,35.53
2018-04-08T17:01:54.482Z,35.13
2018-04-08T17:04:20.445Z,38.00
2018-04-08T17:06:46.437Z,37.07
2018-04-08T17:09:13.140Z,35.10
2018-04-08T17:11:39.129Z,34.23
2018-04-08T17:14:05.102Z,35.47
2018-04-08T17:16:31.094Z,34.23
2018-04-08T17:18:57.105Z,36.37
2018-04-08T17:21:23.118Z,34.53
2018-04-08T17:23:49.131Z,36.00
2018-04-08T17:26:15.128Z,35.97
2018-04-08T17:28:41.861Z,34.10
2018-04-08T17:31:07.869Z,35.93
2018-04-08T17:33:33.861Z,34.87
2018-04-08T17:36:00.569Z,35.10
2018-04-08T17:38:26.597Z,37.23
2018-04-08T17:40:52.594Z,34.17
2018-04-08T17:43:18.599Z,34.83
2018-04-08T17:45:46.039Z,34.30
2018-04-08T17:48:12.015Z,34.87
2018-04-08T17:50:38.750Z,34.67
2018-04-08T17:53:04.937Z,40.00
2018-04-08T17:55:31.041Z,38.33
2018-04-08T17:57:57.129Z,37.10
2018-04-08T18:00:23.174Z,37.73
2018-04-08T18:02:49.168Z,37.70
2018-04-08T18:05:15.938Z,41.10
2018-04-08T18:07:41.970Z,40.50
2018-04-08T18:10:08.674Z,40.17
2018-04-08T18:12:34.678Z,39.53
2018-04-08T18:15:00.705Z,37.83
2018-04-08T18:17:26.692Z,42.10
2018-04-08T18:19:52.702Z,38.97
2018-04-08T18:22:18.697Z,43.73
2018-04-08T18:24:45.430Z,41.03
2018-04-08T18:27:11.398Z,40.80
2018-04-08T18:29:37.364Z,39.80
2018-04-08T18:32:03.341Z,37.70
2018-04-08T18:34:29.297Z,39.60
2018-04-08T18:36:56.093Z,40.37
2018-04-08T18:39:22.065Z,41.57
2018-04-08T18:41:48.070Z,38.60
2018-04-08T18:44:14.067Z,41.87
2018-04-08T18:46:40.782Z,41.13
2018-04-08T18:49:06.777Z,37.10
2018-04-08T18:51:32.736Z,33.93
2018-04-08T18:53:58.694Z,36.33
2018-04-08T18:56:24.710Z,35.93
2018-04-08T18:58:50.773Z,37.60
2018-04-08T19:01:16.744Z,35.57
2018-04-08T19:03:42.749Z,37.23
2018-04-08T19:06:08.710Z,35.67
2018-04-08T19:08:34.709Z,36.23
2018-04-08T19:11:00.653Z,36.77
2018-04-08T19:13:26.673Z,38.70
2018-04-08T19:15:52.645Z,38.83
2018-04-08T19:18:19.348Z,41.80
2018-04-08T19:20:45.352Z,39.40
2018-04-08T19:23:11.362Z,40.37
2018-04-08T19:25:38.064Z,37.27
2018-04-08T19:28:04.064Z,38.60
2018-04-08T19:30:36.967Z,41.03
2018-04-08T19:33:03.713Z,40.33
2018-04-08T19:35:30.418Z,37.60
2018-04-08T19:37:56.434Z,38.60
2018-04-08T19:40:22.404Z,37.87
2018-04-08T19:42:49.141Z,41.40
2018-04-08T19:45:15.110Z,40.30
2018-04-08T19:47:41.110Z,39.30
2018-04-08T19:50:07.073Z,35.77
2018-04-08T19:52:33.031Z,36.93
2018-04-08T19:54:59.773Z,44.40
2018-04-08T19:57:25.743Z,41.63
2018-04-08T19:59:51.697Z,37.30
2018-04-08T20:02:17.718Z,41.73
2018-04-08T20:04:43.728Z,46.60
2018-04-08T20:07:10.494Z,40.93
2018-04-08T20:09:36.490Z,43.07
2018-04-08T20:12:02.493Z,36.87
2018-04-08T20:14:28.454Z,39.87
2018-04-08T20:16:54.458Z,41.40
2018-04-08T20:19:20.418Z,40.70
2018-04-08T20:21:46.442Z,42.80
2018-04-08T20:24:12.419Z,42.63
2018-04-08T20:26:38.418Z,40.90
2018-04-08T20:29:04.399Z,41.83
2018-04-08T20:31:31.139Z,40.50
2018-04-08T20:33:57.129Z,41.07
2018-04-08T20:36:23.107Z,39.43
2018-04-08T20:38:49.101Z,43.20
2018-04-08T20:41:22.128Z,43.17
2018-04-08T20:43:48.137Z,44.70
2018-04-08T20:46:14.087Z,41.53
2018-04-08T20:48:40.054Z,43.17
2018-04-08T20:51:06.049Z,45.20
2018-04-08T20:53:32.061Z,48.83
2018-04-08T20:55:58.785Z,45.20
2018-04-08T20:58:24.749Z,47.83
2018-04-08T21:00:50.766Z,44.07
2018-04-08T21:03:16.728Z,44.80
2018-04-08T21:05:42.751Z,39.57
2018-04-08T21:08:09.474Z,45.93
2018-04-08T21:10:35.429Z,47.40
2018-04-08T21:13:02.192Z,49.30
2018-04-08T21:15:28.915Z,46.33
2018-04-08T21:17:54.925Z,46.53
2018-04-08T21:20:20.881Z,43.17
2018-04-08T21:22:46.853Z,45.97
2018-04-08T21:25:13.599Z,46.43
2018-04-08T21:27:39.544Z,53.63
2018-04-08T21:30:06.308Z,50.23
2018-04-08T21:32:33.009Z,47.33
2018-04-08T21:34:59.006Z,45.63
2018-04-08T21:37:25.021Z,49.87
2018-04-08T21:39:51.742Z,46.93
2018-04-08T21:42:17.773Z,49.30
2018-04-08T21:44:43.774Z,44.57
2018-04-08T21:47:09.757Z,43.63
2018-04-08T21:49:35.722Z,47.37
2018-04-08T21:52:02.490Z,51.17
2018-04-08T21:54:29.233Z,48.10
2018-04-08T21:56:55.967Z,50.13
2018-04-08T21:59:21.935Z,51.00
2018-04-08T22:01:47.934Z,48.93
2018-04-08T22:04:13.913Z,50.80
2018-04-08T22:06:39.911Z,50.57
2018-04-08T22:09:06.651Z,49.10
2018-04-08T22:11:32.648Z,53.87
2018-04-08T22:13:58.605Z,48.43
2018-04-08T22:16:24.753Z,50.60
2018-04-08T22:18:50.758Z,53.67
2018-04-08T22:21:16.713Z,46.47
2018-04-08T22:23:42.755Z,53.33
2018-04-08T22:26:08.777Z,50.30
2018-04-08T22:28:34.781Z,53.63
2018-04-08T22:31:01.470Z,51.17
2018-04-08T22:33:27.483Z,52.97
2018-04-08T22:35:53.477Z,50.93
2018-04-08T22:38:19.430Z,50.50
2018-04-08T22:40:46.174Z,57.10
2018-04-08T22:43:12.201Z,44.27
2018-04-08T22:45:38.158Z,49.70
2018-04-08T22:48:04.191Z,47.87
2018-04-08T22:50:30.140Z,45.83
2018-04-08T22:52:56.905Z,49.00
2018-04-08T22:55:22.909Z,55.67
2018-04-08T22:57:50.381Z,49.40
2018-04-08T23:00:23.277Z,47.80
2018-04-08T23:02:49.270Z,47.43
2018-04-08T23:05:15.309Z,57.40
2018-04-08T23:07:41.290Z,53.83
2018-04-08T23:10:07.247Z,51.83
2018-04-08T23:12:33.985Z,48.13
2018-04-08T23:14:59.948Z,45.47
2018-04-08T23:17:26.682Z,52.20
2018-04-08T23:19:53.391Z,52.60
2018-04-08T23:22:19.369Z,51.60
2018-04-08T23:24:45.321Z,53.30
2018-04-08T23:27:12.052Z,54.30
2018-04-08T23:29:38.033Z,50.77
2018-04-08T23:32:04.013Z,47.53
2018-04-08T23:34:30.000Z,51.17
2018-04-08T23:36:55.998Z,55.23
2018-04-08T23:39:22.008Z,53.97
2018-04-08T23:41:48.030Z,51.13
2018-04-08T23:44:13.985Z,49.93
2018-04-08T23:46:39.969Z,50.90
2018-04-08T23:49:05.964Z,52.63
2018-04-08T23:51:31.949Z,55.60
2018-04-08T23:53:57.937Z,47.10
2018-04-08T23:56:24.718Z,50.43
2018-04-08T23:58:51.417Z,49.67
